Time;durP1;ratioP1;P1;durP2;ratioP2;P2;SDS_P1;SDS_P2;PMS_P1;PMS_P2;Temp;Humidity;BMP_temperature;BMP_pressure;BME280_temperature;BME280_humidity;BME280_pressure;Samples;Min_cycle;Max_cycle;Signal;HPM_P1;HPM_P2
2022/09/12 02:46:01;;;;;;;1.60;0.30;;;11.80;99.90;;;;;;6029956;23;89488;31
2022/09/12 02:48:32;;;;;;;0.95;0.20;;;11.80;99.90;;;;;;4855739;29;86813;-68
2022/09/12 02:50:57;;;;;;;2.53;0.20;;;11.80;99.90;;;;;;4861508;28;86486;-69
2022/09/12 02:53:25;;;;;;;2.35;0.30;;;11.80;99.90;;;;;;4861050;28;85553;-68
2022/09/12 02:55:51;;;;;;;1.17;0.22;;;11.90;99.90;;;;;;4863560;29;87432;-71
2022/09/12 02:58:21;;;;;;;2.75;0.38;;;12.00;99.90;;;;;;4861726;28;87439;-70
2022/09/12 03:00:54;;;;;;;1.73;0.40;;;11.90;99.90;;;;;;4861889;28;87773;-68
2022/09/12 03:03:48;;;;;;;2.47;0.20;;;11.80;99.90;;;;;;4864274;28;87046;-69
2022/09/12 03:06:21;;;;;;;3.70;0.30;;;11.80;99.90;;;;;;4835784;28;86804;-68
2022/09/12 03:08:53;;;;;;;1.48;0.20;;;11.80;99.90;;;;;;4860869;28;87081;-70
2022/09/12 03:12:12;;;;;;;1.05;0.20;;;11.80;99.90;;;;;;4853972;28;86338;-71
2022/09/12 03:15:03;;;;;;;0.95;0.20;;;11.80;99.90;;;;;;4798923;29;86385;-68
2022/09/12 03:17:47;;;;;;;0.95;0.20;;;11.80;99.90;;;;;;4802838;29;86768;-67
2022/09/12 03:20:36;;;;;;;2.35;0.50;;;11.80;99.90;;;;;;4843016;28;86630;-76
2022/09/12 03:23:09;;;;;;;1.48;0.30;;;11.80;99.90;;;;;;4858154;28;86398;-76
2022/09/12 03:25:46;;;;;;;2.88;0.20;;;11.70;99.90;;;;;;4863308;28;86902;-69
2022/09/12 03:28:15;;;;;;;0.80;0.20;;;11.70;99.90;;;;;;4859911;28;87897;-68
2022/09/12 03:30:44;;;;;;;1.23;0.30;;;11.70;99.90;;;;;;4861436;29;88981;-68
2022/09/12 03:33:17;;;;;;;2.72;0.32;;;11.60;99.90;;;;;;4862450;28;86771;-69
2022/09/12 03:35:45;;;;;;;0.85;0.10;;;11.60;99.90;;;;;;4864146;28;86526;-69
2022/09/12 03:38:11;;;;;;;3.95;0.30;;;11.50;99.90;;;;;;4864485;28;88110;-69
2022/09/12 03:40:38;;;;;;;1.00;0.40;;;11.50;99.90;;;;;;4863828;28;86741;-72
2022/09/12 03:43:05;;;;;;;1.98;0.20;;;11.50;99.90;;;;;;4863330;28;86403;-69
2022/09/12 03:45:31;;;;;;;1.42;0.20;;;11.40;99.90;;;;;;4859444;29;85888;-71
2022/09/12 03:47:57;;;;;;;1.42;0.30;;;11.40;99.90;;;;;;4876281;28;87069;-68
2022/09/12 03:50:23;;;;;;;1.48;0.20;;;11.30;99.90;;;;;;4880692;28;86746;-71
2022/09/12 03:52:48;;;;;;;1.40;0.20;;;11.30;99.90;;;;;;4880329;28;87263;-68
2022/09/12 03:55:14;;;;;;;1.33;0.30;;;11.30;99.90;;;;;;4880925;28;86587;-73
2022/09/12 03:57:40;;;;;;;2.38;0.20;;;11.20;99.90;;;;;;4879031;28;87263;-74
2022/09/12 04:00:07;;;;;;;1.45;0.30;;;11.30;99.90;;;;;;4880241;28;87618;-69
2022/09/12 04:02:33;;;;;;;1.88;0.30;;;11.30;99.90;;;;;;4881746;28;86409;-73
2022/09/12 04:04:59;;;;;;;1.77;0.22;;;11.40;99.90;;;;;;4883061;28;86249;-70
2022/09/12 04:07:25;;;;;;;1.08;0.20;;;11.30;99.90;;;;;;4876743;28;87038;-69
2022/09/12 04:09:52;;;;;;;2.40;0.28;;;11.30;99.90;;;;;;4881131;28;86995;-71
2022/09/12 04:12:18;;;;;;;1.70;0.30;;;11.30;99.90;;;;;;4878296;28;87302;-70
2022/09/12 04:14:44;;;;;;;2.08;0.30;;;11.30;99.90;;;;;;4884328;28;86704;-68
2022/09/12 04:17:10;;;;;;;1.58;0.30;;;11.20;99.90;;;;;;4893097;28;88238;-72
2022/09/12 04:19:35;;;;;;;8.18;0.50;;;11.10;99.90;;;;;;4883274;28;88292;-70
2022/09/12 04:22:01;;;;;;;1.38;0.30;;;11.10;99.90;;;;;;4881510;28;86448;-69
2022/09/12 04:24:27;;;;;;;1.00;0.13;;;11.00;99.90;;;;;;4881497;28;86241;-69
2022/09/12 04:26:52;;;;;;;2.20;0.32;;;10.90;99.90;;;;;;4880891;28;87983;-70
2022/09/12 04:29:18;;;;;;;1.33;0.10;;;10.90;99.90;;;;;;4881409;28;87247;-73
2022/09/12 04:31:44;;;;;;;1.33;0.60;;;10.90;99.90;;;;;;4888479;28;86303;-71
2022/09/12 04:34:09;;;;;;;1.13;0.30;;;10.80;99.90;;;;;;4878260;28;85982;-71
2022/09/12 04:36:35;;;;;;;3.97;0.45;;;10.80;99.90;;;;;;4879323;28;86666;-68
2022/09/12 04:39:03;;;;;;;1.58;0.40;;;10.90;99.90;;;;;;4881223;28;87530;-69
2022/09/12 04:41:35;;;;;;;2.15;0.60;;;10.90;99.90;;;;;;4878649;28;89079;-70
2022/09/12 04:44:04;;;;;;;1.33;0.20;;;11.00;99.90;;;;;;4880117;28;87288;-71
2022/09/12 04:46:32;;;;;;;1.85;0.30;;;11.00;99.90;;;;;;4878916;28;86764;-72
2022/09/12 04:48:58;;;;;;;1.17;0.30;;;11.10;99.90;;;;;;4879914;28;86993;-70
2022/09/12 04:51:27;;;;;;;1.67;0.20;;;11.10;99.90;;;;;;4877682;28;86197;-71
2022/09/12 04:53:56;;;;;;;2.92;0.20;;;11.10;99.90;;;;;;4880533;28;86226;-74
2022/09/12 04:56:23;;;;;;;3.00;0.30;;;11.10;99.90;;;;;;4879032;28;87286;-70
2022/09/12 04:58:49;;;;;;;2.50;0.30;;;11.10;99.90;;;;;;4880475;28;86881;-70
2022/09/12 05:01:21;;;;;;;2.17;0.40;;;11.10;99.90;;;;;;4880990;28;86653;-70
2022/09/12 05:03:49;;;;;;;2.97;0.40;;;11.10;99.90;;;;;;4879709;28;86247;-66
2022/09/12 05:06:20;;;;;;;2.70;0.22;;;11.10;99.90;;;;;;4875673;28;87692;-70
2022/09/12 05:08:46;;;;;;;6.28;0.50;;;11.10;99.90;;;;;;4870257;28;88079;-70
2022/09/12 05:11:15;;;;;;;4.15;0.43;;;11.10;99.90;;;;;;4879568;28;86914;-74
2022/09/12 05:13:41;;;;;;;1.20;0.30;;;11.10;99.90;;;;;;4873053;28;86955;-71
2022/09/12 05:16:10;;;;;;;2.15;0.30;;;11.10;99.90;;;;;;4874554;28;87301;-69
2022/09/12 05:18:37;;;;;;;2.35;0.22;;;11.60;99.90;;;;;;4878902;28;86949;-72
2022/09/12 05:21:05;;;;;;;2.10;0.20;;;12.40;99.90;;;;;;4878518;28;87234;-72
2022/09/12 05:23:32;;;;;;;3.72;0.22;;;12.90;99.90;;;;;;4870452;28;86030;-70
2022/09/12 05:25:59;;;;;;;1.85;0.20;;;13.60;99.90;;;;;;4876944;28;87253;-72
2022/09/12 05:28:30;;;;;;;0.80;0.20;;;14.10;99.90;;;;;;4880665;28;86957;-70
2022/09/12 05:31:06;;;;;;;1.30;0.30;;;14.60;98.10;;;;;;4881446;28;87442;-73
2022/09/12 05:33:34;;;;;;;1.30;0.35;;;14.70;96.50;;;;;;4877910;28;86867;-72
2022/09/12 05:36:00;;;;;;;1.42;0.30;;;14.50;96.50;;;;;;4880500;28;87172;-71
2022/09/12 05:38:29;;;;;;;2.28;0.30;;;13.90;97.80;;;;;;4871380;28;87574;-73
2022/09/12 05:41:05;;;;;;;0.93;0.30;;;13.70;98.90;;;;;;4875805;28;86408;-71
2022/09/12 05:43:32;;;;;;;3.42;0.60;;;14.30;97.50;;;;;;4878848;28;87046;-74
2022/09/12 05:46:02;;;;;;;1.48;0.30;;;15.20;95.40;;;;;;4878768;28;87208;-72
2022/09/12 05:48:28;;;;;;;5.03;0.40;;;16.20;93.60;;;;;;4882091;28;87333;-70
2022/09/12 05:51:02;;;;;;;3.58;0.80;;;16.80;90.90;;;;;;4876049;28;86658;-70
2022/09/12 05:53:31;;;;;;;1.75;0.30;;;17.10;87.80;;;;;;4880034;28;86714;-71
2022/09/12 05:56:24;;;;;;;0.75;0.25;;;17.40;83.40;;;;;;4877674;28;88236;-70
2022/09/12 05:58:54;;;;;;;3.25;0.30;;;17.80;82.30;;;;;;4864953;28;87895;-72
2022/09/12 06:01:21;;;;;;;2.45;0.40;;;18.00;80.40;;;;;;4875754;28;86282;-69
2022/09/12 06:03:51;;;;;;;2.05;0.40;;;18.10;80.50;;;;;;4876696;28;87143;-75
2022/09/12 06:06:20;;;;;;;2.67;0.38;;;17.90;80.00;;;;;;4880466;28;86905;-72
2022/09/12 06:08:48;;;;;;;3.17;0.52;;;19.20;76.30;;;;;;4877790;28;87171;-70
2022/09/12 06:11:19;;;;;;;1.95;0.43;;;19.60;74.20;;;;;;4878891;28;86285;-71
2022/09/12 06:13:45;;;;;;;2.40;0.45;;;20.20;70.30;;;;;;4880473;28;86237;-78
2022/09/12 06:16:20;;;;;;;1.15;0.40;;;19.50;73.10;;;;;;4880529;28;87539;-72
2022/09/12 06:18:48;;;;;;;3.50;0.50;;;19.70;71.30;;;;;;4877186;28;86736;-71
2022/09/12 06:21:14;;;;;;;4.70;0.50;;;20.60;69.50;;;;;;4879421;28;87668;-71
2022/09/12 06:23:40;;;;;;;1.80;0.63;;;21.30;65.60;;;;;;4877676;28;86443;-71
2022/09/12 06:26:08;;;;;;;1.50;0.60;;;20.60;68.70;;;;;;4882882;28;87373;-68
2022/09/12 06:28:36;;;;;;;1.95;0.57;;;20.50;67.90;;;;;;4880831;28;86965;-72
2022/09/12 06:31:07;;;;;;;2.70;0.80;;;20.60;68.30;;;;;;4881704;28;87029;-69
2022/09/12 06:33:35;;;;;;;4.00;0.50;;;21.80;63.00;;;;;;4873882;28;86725;-70
2022/09/12 06:36:06;;;;;;;3.33;0.57;;;21.80;64.20;;;;;;4875371;28;86785;-71
2022/09/12 06:38:32;;;;;;;2.28;0.60;;;23.30;59.80;;;;;;4877132;28;86990;-67
2022/09/12 06:40:59;;;;;;;2.63;0.88;;;23.30;59.00;;;;;;4879821;28;86847;-71
2022/09/12 06:43:25;;;;;;;4.03;1.00;;;22.60;61.90;;;;;;4875793;28;86312;-70
2022/09/12 06:45:51;;;;;;;3.60;1.00;;;23.50;58.90;;;;;;4880545;28;87618;-69
2022/09/12 06:48:17;;;;;;;2.45;0.93;;;23.80;59.50;;;;;;4879997;28;87173;-68
2022/09/12 06:50:42;;;;;;;5.15;1.00;;;25.50;54.10;;;;;;4878273;28;86653;-68
2022/09/12 06:53:08;;;;;;;3.22;0.80;;;25.50;54.10;;;;;;4880701;28;86456;-68
2022/09/12 06:55:34;;;;;;;5.20;0.90;;;25.40;53.40;;;;;;4879776;28;88692;-68
2022/09/12 06:58:00;;;;;;;4.32;1.10;;;27.40;52.10;;;;;;4881475;28;86649;-71
2022/09/12 07:00:26;;;;;;;2.90;1.25;;;27.50;49.40;;;;;;4879893;28;86625;-72
2022/09/12 07:02:57;;;;;;;3.58;1.02;;;27.90;48.10;;;;;;4872830;28;86849;-73
2022/09/12 07:05:23;;;;;;;2.40;1.13;;;29.80;46.90;;;;;;4880736;28;87084;-71
2022/09/12 07:07:48;;;;;;;1.73;1.20;;;30.50;45.80;;;;;;4879543;28;86770;-70
2022/09/12 07:10:14;;;;;;;3.63;0.50;;;32.10;42.20;;;;;;4878156;28;87801;-70
2022/09/12 07:12:40;;;;;;;2.03;1.00;;;32.40;39.80;;;;;;4879930;28;86789;-71
2022/09/12 07:15:06;;;;;;;2.63;1.30;;;31.60;40.90;;;;;;4878110;28;87386;-69
2022/09/12 07:17:31;;;;;;;0.95;0.43;;;32.30;40.30;;;;;;4880117;28;86966;-71
2022/09/12 07:19:57;;;;;;;7.90;1.40;;;32.50;39.80;;;;;;4878756;28;87117;-69
2022/09/12 07:22:23;;;;;;;1.75;1.38;;;32.70;40.80;;;;;;4879597;28;87234;-70
2022/09/12 07:24:49;;;;;;;1.83;1.55;;;32.00;40.10;;;;;;4878250;28;87935;-69
2022/09/12 07:27:14;;;;;;;3.15;1.20;;;32.80;39.40;;;;;;4878083;28;86842;-71
2022/09/12 07:29:40;;;;;;;2.58;1.58;;;34.70;37.60;;;;;;4879148;28;87043;-67
2022/09/12 07:32:06;;;;;;;2.13;1.70;;;35.70;35.30;;;;;;4880079;28;86340;-69
2022/09/12 07:34:33;;;;;;;2.20;1.75;;;35.50;36.50;;;;;;4878788;28;88324;-69
2022/09/12 07:36:58;;;;;;;1.52;1.30;;;35.90;34.80;;;;;;4879536;28;88437;-68
2022/09/12 07:39:24;;;;;;;2.05;1.70;;;36.80;35.60;;;;;;4878352;28;87926;-69
2022/09/12 07:41:50;;;;;;;2.20;2.00;;;36.00;35.60;;;;;;4869694;28;86679;-69
2022/09/12 07:44:16;;;;;;;2.28;1.60;;;36.80;35.20;;;;;;4879396;28;87679;-69
2022/09/12 07:46:41;;;;;;;1.63;1.52;;;37.50;33.00;;;;;;4879115;28;86905;-69
2022/09/12 07:49:07;;;;;;;4.55;1.80;;;38.10;33.10;;;;;;4878399;28;86272;-68
2022/09/12 07:51:33;;;;;;;1.88;1.60;;;38.40;32.70;;;;;;4879774;28;87237;-71
2022/09/12 07:54:00;;;;;;;1.77;0.90;;;38.40;33.20;;;;;;4878415;28;88294;-70
2022/09/12 07:56:26;;;;;;;11.57;2.80;;;37.30;32.70;;;;;;4881827;28;86996;-67
2022/09/12 07:58:54;;;;;;;4.40;2.33;;;37.80;33.30;;;;;;4871587;28;87942;-70
2022/09/12 08:01:24;;;;;;;6.13;2.40;;;39.20;32.60;;;;;;4873967;28;87817;-70
2022/09/12 08:03:56;;;;;;;3.30;3.00;;;39.20;33.00;;;;;;4876021;28;86777;-70
2022/09/12 08:06:23;;;;;;;2.92;2.72;;;39.90;30.90;;;;;;4877161;28;86802;-68
2022/09/12 08:08:50;;;;;;;2.72;2.53;;;38.70;34.70;;;;;;4876607;28;86640;-70
2022/09/12 08:11:18;;;;;;;3.65;3.35;;;39.10;35.40;;;;;;4877932;28;87129;-69
2022/09/12 08:13:45;;;;;;;3.35;3.05;;;39.80;34.70;;;;;;4877249;28;86996;-69
2022/09/12 08:16:13;;;;;;;3.47;2.75;;;39.80;32.70;;;;;;4873325;28;87680;-69
2022/09/12 08:18:39;;;;;;;4.68;2.83;;;40.10;30.90;;;;;;4877111;28;86857;-70
2022/09/12 08:21:10;;;;;;;12.57;2.92;;;39.00;30.60;;;;;;4878244;28;86193;-69
2022/09/12 08:23:36;;;;;;;4.22;3.10;;;38.50;32.80;;;;;;4877911;28;87544;-69
2022/09/12 08:26:03;;;;;;;14.85;3.25;;;38.40;31.30;;;;;;4877301;28;87287;-71
2022/09/12 08:28:31;;;;;;;3.78;3.47;;;37.00;34.00;;;;;;4877554;28;86711;-70
2022/09/12 08:31:04;;;;;;;6.53;3.58;;;39.10;31.90;;;;;;4878858;28;87020;-69
2022/09/12 08:33:33;;;;;;;4.07;3.20;;;41.30;31.50;;;;;;4875123;28;87245;-72
2022/09/12 08:36:06;;;;;;;5.45;2.30;;;41.00;30.20;;;;;;4876049;28;86943;-69
2022/09/12 08:38:37;;;;;;;5.30;4.07;;;41.20;30.80;;;;;;4878316;28;86241;-68
2022/09/12 08:41:18;;;;;;;5.88;3.92;;;43.00;30.10;;;;;;4876459;28;86788;-67
2022/09/12 08:44:03;;;;;;;4.13;3.83;;;43.70;29.70;;;;;;4874480;28;87980;-67
2022/09/12 08:46:31;;;;;;;4.30;3.92;;;44.70;28.90;;;;;;4877111;28;86916;-69
2022/09/12 08:49:00;;;;;;;4.20;3.90;;;45.30;28.10;;;;;;4877189;28;87273;-68
2022/09/12 08:51:27;;;;;;;5.93;2.70;;;45.50;27.80;;;;;;4877934;28;86797;-70
2022/09/12 08:53:56;;;;;;;7.03;4.95;;;43.80;29.70;;;;;;4878229;28;87243;-70
2022/09/12 08:56:23;;;;;;;5.97;5.53;;;44.00;28.60;;;;;;4871033;28;88027;-72
2022/09/12 08:58:49;;;;;;;4.00;3.63;;;43.10;28.50;;;;;;4876178;28;87614;-71
2022/09/12 09:01:14;;;;;;;4.95;4.47;;;39.50;31.10;;;;;;4877564;28;86877;-70
2022/09/12 09:04:02;;;;;;;5.70;3.65;;;40.40;32.30;;;;;;4873777;28;86498;-68
2022/09/12 09:06:33;;;;;;;5.72;5.22;;;43.10;30.90;;;;;;4873683;28;87644;-67
2022/09/12 09:09:11;;;;;;;5.88;5.38;;;45.40;28.30;;;;;;4878454;28;86338;-67
2022/09/12 09:12:14;;;;;;;4.65;3.13;;;46.50;28.00;;;;;;4879294;28;87144;-70
2022/09/12 09:15:08;;;;;;;6.20;5.70;;;47.00;27.60;;;;;;4851184;28;88319;-68
2022/09/12 09:17:43;;;;;;;5.55;5.15;;;46.30;28.30;;;;;;4875554;28;89311;-70
2022/09/12 09:20:24;;;;;;;6.45;5.85;;;46.40;27.60;;;;;;4873300;28;86329;-71
2022/09/12 09:23:16;;;;;;;5.68;5.28;;;46.70;27.00;;;;;;4872567;28;86409;-69
2022/09/12 09:25:51;;;;;;;6.95;6.35;;;47.80;27.00;;;;;;4875415;28;89271;-71
2022/09/12 09:28:24;;;;;;;8.60;7.72;;;48.10;27.00;;;;;;4876217;28;88922;-70
2022/09/12 09:30:51;;;;;;;8.95;8.25;;;47.90;27.20;;;;;;4884347;28;86381;-69
2022/09/12 09:33:25;;;;;;;9.15;8.30;;;48.40;26.80;;;;;;4878744;28;85580;-68
2022/09/12 09:36:10;;;;;;;9.20;8.40;;;48.80;26.30;;;;;;4878124;28;87551;-68
2022/09/12 09:39:08;;;;;;;8.68;7.93;;;49.00;26.20;;;;;;4875281;28;88071;-68
2022/09/12 09:41:40;;;;;;;8.25;7.63;;;47.30;27.40;;;;;;4874901;28;87730;-70
2022/09/12 09:44:06;;;;;;;7.57;6.90;;;48.40;27.00;;;;;;4870524;28;86891;-71
2022/09/12 09:46:32;;;;;;;9.05;8.32;;;48.40;28.40;;;;;;4872172;28;87273;-69
2022/09/12 09:49:02;;;;;;;8.73;8.00;;;47.70;29.00;;;;;;4876993;28;87258;-70
2022/09/12 09:51:36;;;;;;;9.60;8.75;;;45.70;29.80;;;;;;4876613;28;86975;-67
2022/09/12 09:54:20;;;;;;;7.38;6.80;;;45.40;30.00;;;;;;4873905;28;86745;-70
2022/09/12 09:56:46;;;;;;;7.28;6.68;;;46.60;29.80;;;;;;4877229;28;87264;-70
2022/09/12 09:59:12;;;;;;;6.43;5.90;;;45.90;30.00;;;;;;4872742;28;86847;-72
2022/09/12 10:01:56;;;;;;;7.63;6.95;;;44.70;30.70;;;;;;4872037;28;87688;-72
2022/09/12 10:04:27;;;;;;;6.18;5.68;;;43.30;32.00;;;;;;4874275;28;86881;-69
2022/09/12 10:06:58;;;;;;;6.97;6.45;;;42.80;32.20;;;;;;4877717;28;88136;-70
2022/09/12 10:09:34;;;;;;;7.78;7.18;;;42.70;32.70;;;;;;4878118;28;87871;-68
2022/09/12 10:12:21;;;;;;;6.55;5.95;;;43.00;32.40;;;;;;4878129;28;87724;-68
2022/09/12 10:15:17;;;;;;;5.78;5.32;;;43.30;32.50;;;;;;4870186;28;86650;-71
2022/09/12 10:17:45;;;;;;;6.82;5.65;;;42.60;32.60;;;;;;4874570;28;88786;-68
2022/09/12 10:20:36;;;;;;;6.95;6.43;;;41.90;32.80;;;;;;4875069;28;88774;-69
2022/09/12 10:23:22;;;;;;;5.32;4.82;;;39.60;34.10;;;;;;4876609;28;86721;-68
2022/09/12 10:25:54;;;;;;;6.30;5.68;;;35.70;38.90;;;;;;4874818;28;86408;-69
2022/09/12 10:28:47;;;;;;;6.43;5.22;;;33.80;41.10;;;;;;4874548;28;87554;-72
2022/09/12 10:31:24;;;;;;;5.05;4.53;;;32.40;42.70;;;;;;4869449;28;86931;-69
2022/09/12 10:33:51;;;;;;;4.22;3.75;;;30.70;45.90;;;;;;4872283;28;88084;-72
2022/09/12 10:36:20;;;;;;;4.03;3.63;;;28.90;50.00;;;;;;4875288;28;87189;-69
2022/09/12 10:38:59;;;;;;;4.85;3.00;;;27.60;51.00;;;;;;4875726;28;86987;-69
2022/09/12 10:41:25;;;;;;;4.55;2.70;;;26.80;53.60;;;;;;4872928;28;87145;-71
2022/09/12 10:43:51;;;;;;;5.10;2.90;;;26.30;53.70;;;;;;4877912;28;86313;-70
2022/09/12 10:46:17;;;;;;;3.33;2.83;;;26.40;53.60;;;;;;4872175;28;86501;-71
2022/09/12 10:49:03;;;;;;;2.63;1.60;;;25.70;57.10;;;;;;4876254;28;87388;-69
2022/09/12 10:51:29;;;;;;;2.85;2.28;;;25.20;58.10;;;;;;4883500;28;88190;-71
2022/09/12 10:54:01;;;;;;;5.95;1.95;;;25.10;58.90;;;;;;4876502;28;86710;-70
2022/09/12 10:56:32;;;;;;;3.08;2.03;;;24.80;60.60;;;;;;4873997;28;86481;-71
2022/09/12 10:59:55;;;;;;;4.68;1.60;;;24.70;59.40;;;;;;4871561;28;88242;-70
2022/09/12 11:02:27;;;;;;;3.80;1.70;;;24.90;58.30;;;;;;4817435;29;88893;-70
2022/09/12 11:04:59;;;;;;;3.70;1.75;;;24.80;57.80;;;;;;4816920;29;86428;-69
2022/09/12 11:07:40;;;;;;;5.15;1.77;;;24.20;59.10;;;;;;4850457;28;87201;-70
2022/09/12 11:10:21;;;;;;;2.95;1.55;;;24.00;60.50;;;;;;4870732;28;87168;-69
2022/09/12 11:13:11;;;;;;;2.17;1.13;;;23.90;61.80;;;;;;4873798;28;86629;-71
2022/09/12 11:16:03;;;;;;;2.53;1.20;;;23.80;60.50;;;;;;4873657;28;87209;-69
2022/09/12 11:18:42;;;;;;;2.58;1.08;;;24.00;62.00;;;;;;4875158;28;85893;-69
2022/09/12 11:21:13;;;;;;;5.22;0.80;;;24.30;59.30;;;;;;4874597;28;87326;-70
2022/09/12 11:24:04;;;;;;;5.53;0.63;;;24.60;56.90;;;;;;4876121;28;87142;-68
2022/09/12 11:26:48;;;;;;;1.73;1.25;;;24.80;56.10;;;;;;4870300;28;87516;-70
2022/09/12 11:29:45;;;;;;;1.50;0.90;;;24.30;57.30;;;;;;4874418;28;87579;-72
2022/09/12 11:32:17;;;;;;;2.08;0.45;;;24.10;59.60;;;;;;4874942;28;86948;-68
2022/09/12 11:34:56;;;;;;;1.63;0.80;;;23.80;56.60;;;;;;4875114;28;86903;-70
2022/09/12 11:37:26;;;;;;;2.95;0.43;;;23.60;59.60;;;;;;4876138;28;86535;-68
2022/09/12 11:39:55;;;;;;;1.40;0.63;;;23.10;58.80;;;;;;4874911;28;87187;-69
2022/09/12 11:42:36;;;;;;;1.45;0.80;;;23.10;60.90;;;;;;4877614;28;88106;-70
2022/09/12 11:45:28;;;;;;;1.17;0.50;;;23.20;60.20;;;;;;4875892;28;86234;-69
2022/09/12 11:47:57;;;;;;;1.13;0.73;;;23.10;60.70;;;;;;4874280;28;86728;-69
2022/09/12 11:50:29;;;;;;;1.95;0.88;;;23.20;60.50;;;;;;4876998;28;87170;-69
2022/09/12 11:53:02;;;;;;;1.17;0.60;;;23.20;59.90;;;;;;4874903;28;88219;-70
2022/09/12 11:55:38;;;;;;;1.65;0.68;;;23.00;59.40;;;;;;4870510;28;88080;-69
2022/09/12 11:58:06;;;;;;;1.90;0.75;;;22.80;62.30;;;;;;4875008;28;87200;-70
2022/09/12 12:00:49;;;;;;;2.50;0.80;;;22.60;64.70;;;;;;4872754;28;86864;-69
2022/09/12 12:03:38;;;;;;;3.63;1.00;;;22.60;64.10;;;;;;4876153;28;87318;-68
2022/09/12 12:06:11;;;;;;;1.25;0.82;;;22.90;61.90;;;;;;4876182;28;86715;-71
2022/09/12 12:08:40;;;;;;;2.88;0.82;;;23.10;63.30;;;;;;4875153;28;86865;-69
2022/09/12 12:11:07;;;;;;;1.35;0.60;;;23.20;61.80;;;;;;4876037;28;86283;-70
2022/09/12 12:13:34;;;;;;;1.45;0.70;;;23.20;62.80;;;;;;4876527;28;87077;-72
2022/09/12 12:16:06;;;;;;;5.70;0.63;;;23.10;61.20;;;;;;4876510;28;86963;-68
2022/09/12 12:18:35;;;;;;;1.02;0.70;;;22.90;60.80;;;;;;4876615;28;88010;-69
2022/09/12 12:21:30;;;;;;;1.27;0.35;;;23.00;62.60;;;;;;4876354;28;86242;-68
2022/09/12 12:24:03;;;;;;;;;;;23.00;61.90;;;;;;4876686;28;88193;-68
2022/09/12 12:26:41;;;;;;;3.75;0.63;;;23.20;61.20;;;;;;4878600;28;86748;-70
2022/09/12 12:29:16;;;;;;;3.30;0.63;;;23.10;61.90;;;;;;4875103;28;86354;-70
2022/09/12 12:32:03;;;;;;;1.60;0.98;;;23.30;63.80;;;;;;4875233;28;86912;-69
2022/09/12 12:34:38;;;;;;;3.75;1.02;;;23.40;63.20;;;;;;4876046;28;87475;-71
2022/09/12 12:37:19;;;;;;;2.47;0.95;;;23.50;61.20;;;;;;4874544;28;87106;-71
2022/09/12 12:39:46;;;;;;;3.17;0.63;;;23.60;61.00;;;;;;4874871;28;88435;-70
2022/09/12 12:42:35;;;;;;;1.42;0.75;;;23.50;62.90;;;;;;4867103;28;86933;-70
2022/09/12 12:45:16;;;;;;;;;;;23.40;59.20;;;;;;4866270;28;88171;-69
2022/09/12 12:47:46;;;;;;;1.63;0.73;;;23.10;61.10;;;;;;4874834;28;86618;-69
2022/09/12 12:50:14;;;;;;;1.25;0.93;;;22.80;62.10;;;;;;4879202;28;86861;-71
2022/09/12 12:53:03;;;;;;;1.40;0.70;;;22.70;60.10;;;;;;4876507;28;86658;-69
2022/09/12 12:55:46;;;;;;;;;;;22.80;62.00;;;;;;4878186;28;86629;-73
2022/09/12 12:58:39;;;;;;;1.63;0.60;;;23.20;60.50;;;;;;4880581;28;86660;-69
2022/09/12 13:01:17;;;;;;;1.10;0.60;;;23.50;60.70;;;;;;4878803;28;86769;-70
2022/09/12 13:04:05;;;;;;;2.03;0.32;;;23.40;64.30;;;;;;4878101;28;85505;-72
2022/09/12 13:06:33;;;;;;;1.33;0.63;;;23.40;62.20;;;;;;4866169;28;86729;-71
2022/09/12 13:09:06;;;;;;;2.25;0.98;;;23.60;60.60;;;;;;4878965;28;87094;-69
2022/09/12 13:11:38;;;;;;;2.55;0.75;;;23.50;62.50;;;;;;4878258;28;87884;-70
2022/09/12 13:14:08;;;;;;;1.23;0.55;;;23.60;60.00;;;;;;4878940;28;86968;-70
2022/09/12 13:16:52;;;;;;;2.78;1.17;;;23.60;60.60;;;;;;4878617;28;87311;-71
2022/09/12 13:19:27;;;;;;;1.85;0.60;;;23.60;57.80;;;;;;4876783;28;87638;-70
2022/09/12 13:22:00;;;;;;;0.80;0.20;;;23.60;59.00;;;;;;4875563;28;86999;-69
2022/09/12 13:24:27;;;;;;;1.60;0.20;;;23.70;59.20;;;;;;4878533;28;86308;-68
2022/09/12 13:26:52;;;;;;;1.10;0.57;;;23.70;59.10;;;;;;4878997;28;87052;-69
2022/09/12 13:29:21;;;;;;;1.10;0.70;;;23.80;57.50;;;;;;4878842;28;86971;-69
2022/09/12 13:32:01;;;;;;;2.83;0.85;;;23.70;58.10;;;;;;4876083;28;86727;-71
2022/09/12 13:34:30;;;;;;;1.95;0.70;;;23.40;57.30;;;;;;4879091;28;86349;-71
2022/09/12 13:37:30;;;;;;;2.63;0.68;;;23.50;58.90;;;;;;4877102;28;87991;-70
2022/09/12 13:40:27;;;;;;;1.77;0.52;;;23.50;57.10;;;;;;4876592;28;87527;-71
2022/09/12 13:43:07;;;;;;;1.20;0.50;;;23.50;58.60;;;;;;4876626;28;86998;-69
2022/09/12 13:45:38;;;;;;;1.30;0.60;;;23.70;57.80;;;;;;4881566;28;86371;-69
2022/09/12 13:48:09;;;;;;;1.45;0.57;;;23.80;57.00;;;;;;4882083;28;87274;-68
2022/09/12 13:50:47;;;;;;;0.90;0.40;;;23.80;58.50;;;;;;4881604;28;87521;-71
2022/09/12 13:53:16;;;;;;;1.42;0.50;;;23.80;58.20;;;;;;4879145;28;86971;-72
2022/09/12 13:55:45;;;;;;;;;;;23.50;56.00;;;;;;4881617;28;86067;-69
2022/09/12 13:58:24;;;;;;;1.80;0.47;;;23.40;57.50;;;;;;4882925;28;87324;-69
2022/09/12 14:01:14;;;;;;;1.40;0.60;;;23.60;56.10;;;;;;4881096;28;86983;-70
2022/09/12 14:06:50;;;;;;;1.27;0.88;;;23.30;56.70;;;;;;4876416;28;87144;-71
2022/09/12 14:09:22;;;;;;;1.85;0.75;;;23.40;54.90;;;;;;4878974;28;87380;-70
2022/09/12 14:11:50;;;;;;;3.63;1.00;;;23.50;55.00;;;;;;4881078;28;87383;-69
2022/09/12 14:14:26;;;;;;;1.00;0.40;;;23.50;56.20;;;;;;4871127;28;86799;-71
2022/09/12 14:16:52;;;;;;;1.58;0.70;;;23.40;55.60;;;;;;4880258;28;86780;-69
2022/09/12 14:19:19;;;;;;;1.02;0.20;;;23.50;53.90;;;;;;4881268;28;87584;-69
2022/09/12 14:21:45;;;;;;;2.00;0.55;;;23.60;54.90;;;;;;4881174;28;87792;-70
2022/09/12 14:24:13;;;;;;;1.45;0.70;;;23.40;56.20;;;;;;4881506;28;86885;-70
2022/09/12 14:26:41;;;;;;;0.93;0.40;;;23.30;56.90;;;;;;4889297;28;86837;-69
2022/09/12 14:29:07;;;;;;;0.90;0.50;;;23.30;57.60;;;;;;4875834;28;88081;-71
2022/09/12 14:31:36;;;;;;;1.45;0.55;;;23.30;55.60;;;;;;4878831;28;87769;-68
2022/09/12 14:34:10;;;;;;;3.50;0.40;;;23.20;57.10;;;;;;4880935;28;86368;-70
2022/09/12 14:36:49;;;;;;;1.80;0.45;;;23.30;55.50;;;;;;4880174;28;86910;-69
2022/09/12 14:39:39;;;;;;;1.15;0.65;;;23.20;57.30;;;;;;4880659;28;87069;-70
2022/09/12 14:42:14;;;;;;;1.63;0.47;;;23.00;57.30;;;;;;4880449;28;87465;-68
2022/09/12 14:44:42;;;;;;;1.40;0.40;;;23.00;56.80;;;;;;4881502;28;86802;-69
2022/09/12 14:47:14;;;;;;;0.88;0.47;;;23.00;57.10;;;;;;4869071;28;86069;-71
2022/09/12 14:49:41;;;;;;;1.02;0.60;;;23.00;56.60;;;;;;4848784;28;87375;-69
2022/09/12 14:52:22;;;;;;;3.22;0.43;;;22.90;55.60;;;;;;4861191;28;86991;-72
2022/09/12 14:55:01;;;;;;;1.13;0.52;;;22.80;56.60;;;;;;4862145;29;88070;-69
2022/09/12 14:57:29;;;;;;;0.65;0.13;;;22.70;57.10;;;;;;4860631;28;86832;-70
2022/09/12 15:00:13;;;;;;;1.25;0.73;;;22.90;56.30;;;;;;4860815;28;86730;-70
2022/09/12 15:02:41;;;;;;;3.45;0.30;;;22.90;55.60;;;;;;4863096;28;87095;-70
2022/09/12 15:05:06;;;;;;;0.80;0.60;;;22.90;56.80;;;;;;4857148;28;86689;-71
2022/09/12 15:07:33;;;;;;;1.02;0.30;;;22.90;53.80;;;;;;4860914;28;87302;-71
2022/09/12 15:10:03;;;;;;;0.68;0.35;;;22.80;54.80;;;;;;4860370;28;87359;-70
2022/09/12 15:12:29;;;;;;;0.52;0.38;;;22.80;53.30;;;;;;4862166;28;86272;-69
2022/09/12 15:15:11;;;;;;;0.70;0.30;;;22.90;53.10;;;;;;4861370;28;87025;-68
2022/09/12 15:17:37;;;;;;;1.15;0.90;;;22.90;51.80;;;;;;4861138;28;86245;-70
2022/09/12 15:20:04;;;;;;;0.60;0.40;;;22.90;52.10;;;;;;4859890;28;88190;-69
2022/09/12 15:22:31;;;;;;;1.73;0.38;;;22.90;52.70;;;;;;4857725;28;87960;-69
2022/09/12 15:24:57;;;;;;;1.02;0.47;;;22.80;53.50;;;;;;4861921;28;86588;-68
2022/09/12 15:27:25;;;;;;;0.68;0.30;;;22.80;53.70;;;;;;4861932;28;86296;-70
2022/09/12 15:29:53;;;;;;;0.60;0.30;;;23.00;53.90;;;;;;4860878;29;87000;-69
2022/09/12 15:32:27;;;;;;;0.93;0.32;;;22.90;53.60;;;;;;4859780;28;86603;-71
2022/09/12 15:34:53;;;;;;;1.13;0.20;;;22.90;53.10;;;;;;4861654;28;86363;-70
2022/09/12 15:37:22;;;;;;;0.93;0.40;;;22.90;53.30;;;;;;4860767;28;85527;-69
2022/09/12 15:39:49;;;;;;;0.93;0.28;;;23.00;52.20;;;;;;4860578;28;87339;-69
2022/09/12 15:42:16;;;;;;;0.88;0.32;;;22.90;52.80;;;;;;4861076;28;86924;-69
2022/09/12 15:44:42;;;;;;;2.78;0.55;;;22.80;52.90;;;;;;4859982;28;87286;-69
2022/09/12 15:47:11;;;;;;;1.58;0.38;;;22.90;53.30;;;;;;4869617;28;86747;-70
2022/09/12 15:49:37;;;;;;;0.77;0.28;;;22.90;51.20;;;;;;4879422;28;87265;-70
2022/09/12 15:52:03;;;;;;;0.88;0.20;;;22.80;51.90;;;;;;4879262;28;86280;-70
2022/09/12 15:54:29;;;;;;;2.17;0.10;;;22.70;53.20;;;;;;4876949;28;86296;-71
2022/09/12 15:56:54;;;;;;;1.33;0.85;;;22.60;53.30;;;;;;4879344;28;86905;-70
2022/09/12 15:59:20;;;;;;;3.60;0.40;;;22.70;52.50;;;;;;4880224;28;87052;-71
2022/09/12 16:01:46;;;;;;;1.92;0.20;;;22.70;52.90;;;;;;4881201;28;86985;-70